sensor_id;sensor_type;location;lat;lon;timestamp;pressure;altitude;pressure_sealevel;temperature;humidity
48424;BME280;34232;42.502;26.014;2024-03-08T00:01:47;100330.81;;;6.82;100.00
48424;BME280;34232;42.502;26.014;2024-03-08T00:04:13;100329.63;;;6.74;100.00
48424;BME280;34232;42.502;26.014;2024-03-08T00:06:41;100325.13;;;6.76;100.00
48424;BME280;34232;42.502;26.014;2024-03-08T00:09:06;100323.91;;;6.81;100.00
48424;BME280;34232;42.502;26.014;2024-03-08T00:11:33;100325.19;;;6.88;100.00
48424;BME280;34232;42.502;26.014;2024-03-08T00:14:00;100330.63;;;6.85;100.00
48424;BME280;34232;42.502;26.014;2024-03-08T00:16:25;100323.63;;;6.72;100.00
48424;BME280;34232;42.502;26.014;2024-03-08T00:18:50;100322.59;;;6.74;100.00
48424;BME280;34232;42.502;26.014;2024-03-08T00:21:16;100318.50;;;6.70;100.00
48424;BME280;34232;42.502;26.014;2024-03-08T00:23:41;100314.78;;;6.60;100.00
48424;BME280;34232;42.502;26.014;2024-03-08T00:26:07;100309.91;;;6.54;100.00
48424;BME280;34232;42.502;26.014;2024-03-08T00:28:32;100305.63;;;6.39;100.00
48424;BME280;34232;42.502;26.014;2024-03-08T00:30:59;100309.34;;;6.35;100.00
48424;BME280;34232;42.502;26.014;2024-03-08T00:33:25;100314.13;;;6.28;100.00
48424;BME280;34232;42.502;26.014;2024-03-08T00:35:51;100309.94;;;6.25;100.00
48424;BME280;34232;42.502;26.014;2024-03-08T00:38:16;100308.06;;;6.27;100.00
48424;BME280;34232;42.502;26.014;2024-03-08T00:40:44;100313.03;;;6.32;100.00
48424;BME280;34232;42.502;26.014;2024-03-08T00:43:09;100308.25;;;6.39;100.00
48424;BME280;34232;42.502;26.014;2024-03-08T00:45:35;100311.16;;;6.48;100.00
48424;BME280;34232;42.502;26.014;2024-03-08T00:48:00;100308.06;;;6.56;100.00
48424;BME280;34232;42.502;26.014;2024-03-08T00:50:25;100311.88;;;6.64;100.00
48424;BME280;34232;42.502;26.014;2024-03-08T00:52:51;100317.19;;;6.77;100.00
48424;BME280;34232;42.502;26.014;2024-03-08T00:55:16;100320.75;;;6.76;100.00
48424;BME280;34232;42.502;26.014;2024-03-08T00:57:42;100320.16;;;6.85;100.00
48424;BME280;34232;42.502;26.014;2024-03-08T01:00:08;100324.63;;;6.97;100.00
48424;BME280;34232;42.502;26.014;2024-03-08T01:02:40;100327.34;;;6.96;100.00
48424;BME280;34232;42.502;26.014;2024-03-08T01:05:06;100315.00;;;6.98;100.00
48424;BME280;34232;42.502;26.014;2024-03-08T01:07:34;100331.00;;;6.93;100.00
48424;BME280;34232;42.502;26.014;2024-03-08T01:10:02;100323.16;;;6.93;100.00
48424;BME280;34232;42.502;26.014;2024-03-08T01:12:28;100320.34;;;6.96;100.00
48424;BME280;34232;42.502;26.014;2024-03-08T01:14:54;100323.66;;;6.98;100.00
48424;BME280;34232;42.502;26.014;2024-03-08T01:17:20;100320.34;;;6.96;100.00
48424;BME280;34232;42.502;26.014;2024-03-08T01:19:45;100317.72;;;6.96;100.00
48424;BME280;34232;42.502;26.014;2024-03-08T01:22:11;100316.03;;;6.95;100.00
48424;BME280;34232;42.502;26.014;2024-03-08T01:24:36;100323.31;;;6.90;100.00
48424;BME280;34232;42.502;26.014;2024-03-08T01:27:02;100315.31;;;6.79;100.00
48424;BME280;34232;42.502;26.014;2024-03-08T01:29:28;100312.13;;;6.74;100.00
48424;BME280;34232;42.502;26.014;2024-03-08T01:31:55;100315.88;;;6.70;100.00
48424;BME280;34232;42.502;26.014;2024-03-08T01:34:21;100307.78;;;6.60;100.00
48424;BME280;34232;42.502;26.014;2024-03-08T01:36:48;100311.03;;;6.64;100.00
48424;BME280;34232;42.502;26.014;2024-03-08T01:39:14;100316.47;;;6.61;100.00
48424;BME280;34232;42.502;26.014;2024-03-08T01:41:39;100316.06;;;6.67;100.00
48424;BME280;34232;42.502;26.014;2024-03-08T01:44:06;100319.25;;;6.72;100.00
48424;BME280;34232;42.502;26.014;2024-03-08T01:46:33;100315.69;;;6.73;100.00
48424;BME280;34232;42.502;26.014;2024-03-08T01:49:00;100319.44;;;6.69;100.00
48424;BME280;34232;42.502;26.014;2024-03-08T01:51:27;100318.22;;;6.75;100.00
48424;BME280;34232;42.502;26.014;2024-03-08T01:53:55;100325.56;;;6.82;100.00
48424;BME280;34232;42.502;26.014;2024-03-08T01:56:21;100321.47;;;6.92;100.00
48424;BME280;34232;42.502;26.014;2024-03-08T01:58:46;100322.13;;;6.96;100.00
48424;BME280;34232;42.502;26.014;2024-03-08T02:01:12;100315.81;;;6.98;100.00
48424;BME280;34232;42.502;26.014;2024-03-08T02:03:41;100320.88;;;7.01;100.00
48424;BME280;34232;42.502;26.014;2024-03-08T02:06:09;100319.00;;;7.03;100.00
48424;BME280;34232;42.502;26.014;2024-03-08T02:08:36;100311.78;;;7.07;100.00
48424;BME280;34232;42.502;26.014;2024-03-08T02:11:02;100315.25;;;7.08;100.00
48424;BME280;34232;42.502;26.014;2024-03-08T02:13:27;100313.38;;;7.10;100.00
48424;BME280;34232;42.502;26.014;2024-03-08T02:15:58;100309.00;;;7.10;100.00
48424;BME280;34232;42.502;26.014;2024-03-08T02:18:27;100315.25;;;7.08;100.00
48424;BME280;34232;42.502;26.014;2024-03-08T02:20:57;100314.03;;;7.13;100.00
48424;BME280;34232;42.502;26.014;2024-03-08T02:23:23;100324.28;;;7.16;100.00
48424;BME280;34232;42.502;26.014;2024-03-08T02:25:53;100326.19;;;7.14;100.00
48424;BME280;34232;42.502;26.014;2024-03-08T02:28:20;100324.00;;;7.21;100.00
48424;BME280;34232;42.502;26.014;2024-03-08T02:30:50;100326.22;;;7.27;100.00
48424;BME280;34232;42.502;26.014;2024-03-08T02:33:22;100323.28;;;7.31;100.00
48424;BME280;34232;42.502;26.014;2024-03-08T02:35:48;100319.13;;;7.29;99.35
48424;BME280;34232;42.502;26.014;2024-03-08T02:38:15;100320.59;;;7.33;99.04
48424;BME280;34232;42.502;26.014;2024-03-08T02:40:51;100322.06;;;7.37;99.73
48424;BME280;34232;42.502;26.014;2024-03-08T02:43:17;100309.53;;;7.42;99.39
48424;BME280;34232;42.502;26.014;2024-03-08T02:45:43;100323.38;;;7.44;99.63
48424;BME280;34232;42.502;26.014;2024-03-08T02:48:13;100317.91;;;7.47;99.50
48424;BME280;34232;42.502;26.014;2024-03-08T02:50:39;100330.81;;;7.50;99.06
48424;BME280;34232;42.502;26.014;2024-03-08T02:53:11;100322.06;;;7.37;98.96
48424;BME280;34232;42.502;26.014;2024-03-08T02:55:38;100318.75;;;7.21;97.13
48424;BME280;34232;42.502;26.014;2024-03-08T02:58:04;100323.84;;;7.10;96.83
48424;BME280;34232;42.502;26.014;2024-03-08T03:00:31;100320.94;;;7.14;97.89
48424;BME280;34232;42.502;26.014;2024-03-08T03:02:57;100328.50;;;7.19;98.37
48424;BME280;34232;42.502;26.014;2024-03-08T03:05:23;100319.31;;;7.26;98.82
48424;BME280;34232;42.502;26.014;2024-03-08T03:07:49;100306.66;;;7.32;98.77
48424;BME280;34232;42.502;26.014;2024-03-08T03:10:16;100316.63;;;7.40;98.80
48424;BME280;34232;42.502;26.014;2024-03-08T03:12:42;100308.28;;;7.48;98.64
48424;BME280;34232;42.502;26.014;2024-03-08T03:15:08;100306.00;;;7.56;98.62
48424;BME280;34232;42.502;26.014;2024-03-08T03:17:34;100299.72;;;7.58;98.01
48424;BME280;34232;42.502;26.014;2024-03-08T03:19:59;100307.16;;;7.64;98.37
48424;BME280;34232;42.502;26.014;2024-03-08T03:22:30;100305.09;;;7.69;97.94
48424;BME280;34232;42.502;26.014;2024-03-08T03:24:55;100295.34;;;7.71;98.20
48424;BME280;34232;42.502;26.014;2024-03-08T03:27:23;100299.44;;;7.76;97.81
48424;BME280;34232;42.502;26.014;2024-03-08T03:29:50;100298.28;;;7.80;97.67
48424;BME280;34232;42.502;26.014;2024-03-08T03:32:17;100298.41;;;7.78;97.10
48424;BME280;34232;42.502;26.014;2024-03-08T03:34:44;100302.47;;;7.82;96.97
48424;BME280;34232;42.502;26.014;2024-03-08T03:37:10;100301.63;;;7.82;96.89
48424;BME280;34232;42.502;26.014;2024-03-08T03:39:39;100298.28;;;7.80;96.22
48424;BME280;34232;42.502;26.014;2024-03-08T03:42:16;100299.75;;;7.71;96.15
48424;BME280;34232;42.502;26.014;2024-03-08T03:44:44;100295.34;;;7.71;96.51
48424;BME280;34232;42.502;26.014;2024-03-08T03:47:10;100308.44;;;7.71;97.39
48424;BME280;34232;42.502;26.014;2024-03-08T03:49:36;100309.38;;;7.70;97.97
48424;BME280;34232;42.502;26.014;2024-03-08T03:52:01;100307.50;;;7.72;98.25
48424;BME280;34232;42.502;26.014;2024-03-08T03:54:27;100314.44;;;7.73;97.66
48424;BME280;34232;42.502;26.014;2024-03-08T03:56:55;100314.22;;;7.77;98.00
48424;BME280;34232;42.502;26.014;2024-03-08T03:59:21;100313.06;;;7.81;96.90
48424;BME280;34232;42.502;26.014;2024-03-08T04:01:46;100313.91;;;7.81;95.83
48424;BME280;34232;42.502;26.014;2024-03-08T04:04:12;100313.69;;;7.84;95.34
48424;BME280;34232;42.502;26.014;2024-03-08T04:06:37;100314.53;;;7.85;95.43
48424;BME280;34232;42.502;26.014;2024-03-08T04:09:03;100313.59;;;7.86;95.85
48424;BME280;34232;42.502;26.014;2024-03-08T04:11:30;100310.97;;;7.86;94.90
48424;BME280;34232;42.502;26.014;2024-03-08T04:13:55;100307.13;;;7.91;94.29
48424;BME280;34232;42.502;26.014;2024-03-08T04:16:21;100304.59;;;7.90;93.89
48424;BME280;34232;42.502;26.014;2024-03-08T04:18:46;100311.53;;;7.91;93.02
48424;BME280;34232;42.502;26.014;2024-03-08T04:21:13;100307.53;;;7.85;93.71
48424;BME280;34232;42.502;26.014;2024-03-08T04:23:38;100310.97;;;7.86;94.35
48424;BME280;34232;42.502;26.014;2024-03-08T04:26:05;100312.66;;;7.87;94.79
48424;BME280;34232;42.502;26.014;2024-03-08T04:28:31;100310.44;;;7.81;94.42
48424;BME280;34232;42.502;26.014;2024-03-08T04:30:57;100311.28;;;7.81;95.19
48424;BME280;34232;42.502;26.014;2024-03-08T04:33:26;100312.34;;;7.79;95.28
48424;BME280;34232;42.502;26.014;2024-03-08T04:35:51;100316.09;;;7.75;94.90
48424;BME280;34232;42.502;26.014;2024-03-08T04:38:17;100317.78;;;7.76;94.95
48424;BME280;34232;42.502;26.014;2024-03-08T04:40:42;100314.44;;;7.73;95.68
48424;BME280;34232;42.502;26.014;2024-03-08T04:43:08;100313.69;;;7.71;95.70
48424;BME280;34232;42.502;26.014;2024-03-08T04:45:36;100329.31;;;7.73;96.26
48424;BME280;34232;42.502;26.014;2024-03-08T04:48:01;100330.34;;;7.70;96.26
48424;BME280;34232;42.502;26.014;2024-03-08T04:50:27;100333.50;;;7.63;97.21
48424;BME280;34232;42.502;26.014;2024-03-08T04:52:54;100332.00;;;7.59;97.82
48424;BME280;34232;42.502;26.014;2024-03-08T04:55:20;100343.91;;;7.50;98.73
48424;BME280;34232;42.502;26.014;2024-03-08T04:57:47;100343.81;;;7.52;98.91
48424;BME280;34232;42.502;26.014;2024-03-08T05:00:12;100343.50;;;7.56;99.01
48424;BME280;34232;42.502;26.014;2024-03-08T05:02:39;100353.25;;;7.54;98.74
48424;BME280;34232;42.502;26.014;2024-03-08T05:05:05;100351.66;;;7.52;99.13
48424;BME280;34232;42.502;26.014;2024-03-08T05:07:38;100361.50;;;7.48;97.70
48424;BME280;34232;42.502;26.014;2024-03-08T05:10:05;100362.25;;;7.50;98.20
48424;BME280;34232;42.502;26.014;2024-03-08T05:12:32;100363.41;;;7.46;98.03
48424;BME280;34232;42.502;26.014;2024-03-08T05:14:57;100357.75;;;7.52;98.42
48424;BME280;34232;42.502;26.014;2024-03-08T05:17:23;100360.91;;;7.57;98.78
48424;BME280;34232;42.502;26.014;2024-03-08T05:19:49;100361.03;;;7.68;98.36
48424;BME280;34232;42.502;26.014;2024-03-08T05:22:15;100366.84;;;7.73;97.16
48424;BME280;34232;42.502;26.014;2024-03-08T05:24:40;100365.59;;;7.79;96.25
48424;BME280;34232;42.502;26.014;2024-03-08T05:27:06;100361.06;;;7.81;95.85
48424;BME280;34232;42.502;26.014;2024-03-08T05:29:31;100362.47;;;7.87;94.83
48424;BME280;34232;42.502;26.014;2024-03-08T05:31:58;100364.13;;;7.88;94.42
48424;BME280;34232;42.502;26.014;2024-03-08T05:34:24;100366.03;;;7.86;93.59
48424;BME280;34232;42.502;26.014;2024-03-08T05:36:50;100367.69;;;7.87;94.03
48424;BME280;34232;42.502;26.014;2024-03-08T05:39:17;100367.69;;;7.87;94.47
48424;BME280;34232;42.502;26.014;2024-03-08T05:41:43;100375.16;;;7.93;94.30
48424;BME280;34232;42.502;26.014;2024-03-08T05:44:10;100379.25;;;7.97;93.77
48424;BME280;34232;42.502;26.014;2024-03-08T05:46:36;100372.31;;;7.96;93.55
48424;BME280;34232;42.502;26.014;2024-03-08T05:49:08;100377.38;;;7.99;93.95
48424;BME280;34232;42.502;26.014;2024-03-08T05:51:36;100371.91;;;8.02;94.11
48424;BME280;34232;42.502;26.014;2024-03-08T05:54:07;100375.47;;;8.01;93.42
48424;BME280;34232;42.502;26.014;2024-03-08T05:56:36;100383.25;;;8.02;93.39
48424;BME280;34232;42.502;26.014;2024-03-08T05:59:02;100387.34;;;8.06;93.51
48424;BME280;34232;42.502;26.014;2024-03-08T06:01:28;100373.22;;;8.09;93.44
48424;BME280;34232;42.502;26.014;2024-03-08T06:03:54;100376.34;;;8.14;93.46
48424;BME280;34232;42.502;26.014;2024-03-08T06:06:26;100384.09;;;8.16;93.09
48424;BME280;34232;42.502;26.014;2024-03-08T06:08:51;100385.78;;;8.17;93.62
48424;BME280;34232;42.502;26.014;2024-03-08T06:11:18;100386.63;;;8.17;93.11
48424;BME280;34232;42.502;26.014;2024-03-08T06:13:45;100391.03;;;8.17;92.63
48424;BME280;34232;42.502;26.014;2024-03-08T06:16:10;100395.22;;;8.19;92.77
48424;BME280;34232;42.502;26.014;2024-03-08T06:18:37;100396.81;;;8.22;92.78
48424;BME280;34232;42.502;26.014;2024-03-08T06:21:03;100396.72;;;8.23;93.36
48424;BME280;34232;42.502;26.014;2024-03-08T06:23:33;100404.59;;;8.23;94.14
48424;BME280;34232;42.502;26.014;2024-03-08T06:25:59;100404.88;;;8.19;94.53
48424;BME280;34232;42.502;26.014;2024-03-08T06:28:24;100402.16;;;8.20;94.58
48424;BME280;34232;42.502;26.014;2024-03-08T06:30:50;100402.06;;;8.22;93.67
48424;BME280;34232;42.502;26.014;2024-03-08T06:33:17;100408.03;;;8.24;93.14
48424;BME280;34232;42.502;26.014;2024-03-08T06:35:43;100399.63;;;8.19;91.73
48424;BME280;34232;42.502;26.014;2024-03-08T06:38:08;100408.25;;;8.21;90.85
48424;BME280;34232;42.502;26.014;2024-03-08T06:40:34;100408.88;;;8.24;90.85
48424;BME280;34232;42.502;26.014;2024-03-08T06:43:00;100410.78;;;8.22;92.35
48424;BME280;34232;42.502;26.014;2024-03-08T06:45:25;100417.69;;;8.23;94.43
48424;BME280;34232;42.502;26.014;2024-03-08T06:47:51;100422.94;;;8.23;94.63
48424;BME280;34232;42.502;26.014;2024-03-08T06:50:16;100423.13;;;8.20;94.30
48424;BME280;34232;42.502;26.014;2024-03-08T06:52:42;100428.59;;;8.17;94.68
48424;BME280;34232;42.502;26.014;2024-03-08T06:55:08;100433.00;;;8.17;95.35
48424;BME280;34232;42.502;26.014;2024-03-08T06:57:38;100426.25;;;8.13;94.87
48424;BME280;34232;42.502;26.014;2024-03-08T07:00:06;100434.25;;;8.11;95.48
48424;BME280;34232;42.502;26.014;2024-03-08T07:02:34;100435.59;;;8.04;96.88
48424;BME280;34232;42.502;26.014;2024-03-08T07:05:01;100438.00;;;8.07;97.60
48424;BME280;34232;42.502;26.014;2024-03-08T07:07:27;100440.94;;;8.02;97.02
48424;BME280;34232;42.502;26.014;2024-03-08T07:09:52;100438.19;;;8.04;96.88
48424;BME280;34232;42.502;26.014;2024-03-08T07:12:18;100442.31;;;8.08;96.40
48424;BME280;34232;42.502;26.014;2024-03-08T07:14:46;100444.50;;;8.14;96.34
48424;BME280;34232;42.502;26.014;2024-03-08T07:17:12;100441.59;;;8.19;96.19
48424;BME280;34232;42.502;26.014;2024-03-08T07:19:38;100451.88;;;8.22;95.54
48424;BME280;34232;42.502;26.014;2024-03-08T07:22:04;100447.03;;;8.16;94.16
48424;BME280;34232;42.502;26.014;2024-03-08T07:24:30;100447.88;;;8.16;94.23
48424;BME280;34232;42.502;26.014;2024-03-08T07:27:21;100441.50;;;8.20;94.75
48424;BME280;34232;42.502;26.014;2024-03-08T07:29:46;100450.75;;;8.26;94.94
48424;BME280;34232;42.502;26.014;2024-03-08T07:32:12;100452.09;;;8.31;93.63
48424;BME280;34232;42.502;26.014;2024-03-08T07:34:49;100451.00;;;8.35;94.26
48424;BME280;34232;42.502;26.014;2024-03-08T07:37:16;100460.34;;;8.39;94.07
48424;BME280;34232;42.502;26.014;2024-03-08T07:39:41;100456.59;;;8.44;93.07
48424;BME280;34232;42.502;26.014;2024-03-08T07:42:08;100458.88;;;8.48;92.51
48424;BME280;34232;42.502;26.014;2024-03-08T07:44:35;100454.28;;;8.52;91.50
48424;BME280;34232;42.502;26.014;2024-03-08T07:47:00;100457.84;;;8.51;91.94
48424;BME280;34232;42.502;26.014;2024-03-08T07:49:26;100453.13;;;8.56;92.33
48424;BME280;34232;42.502;26.014;2024-03-08T07:51:51;100455.56;;;8.59;92.65
48424;BME280;34232;42.502;26.014;2024-03-08T07:54:17;100458.88;;;8.61;90.90
48424;BME280;34232;42.502;26.014;2024-03-08T07:56:43;100460.47;;;8.63;89.82
48424;BME280;34232;42.502;26.014;2024-03-08T07:59:08;100452.09;;;8.58;90.52
48424;BME280;34232;42.502;26.014;2024-03-08T08:01:33;100459.53;;;8.52;91.10
48424;BME280;34232;42.502;26.014;2024-03-08T08:03:59;100455.56;;;8.59;92.46
48424;BME280;34232;42.502;26.014;2024-03-08T08:06:26;100462.88;;;8.54;93.16
48424;BME280;34232;42.502;26.014;2024-03-08T08:08:52;100466.75;;;8.48;92.60
48424;BME280;34232;42.502;26.014;2024-03-08T08:11:17;100463.91;;;8.38;93.75
48424;BME280;34232;42.502;26.014;2024-03-08T08:13:43;100468.41;;;8.36;96.47
48424;BME280;34232;42.502;26.014;2024-03-08T08:16:09;100466.94;;;8.32;97.22
48424;BME280;34232;42.502;26.014;2024-03-08T08:18:34;100464.06;;;8.23;95.62
48424;BME280;34232;42.502;26.014;2024-03-08T08:21:01;100468.47;;;8.22;95.49
48424;BME280;34232;42.502;26.014;2024-03-08T08:23:26;100466.78;;;8.21;96.98
48424;BME280;34232;42.502;26.014;2024-03-08T08:25:52;100473.50;;;8.25;96.10
48424;BME280;34232;42.502;26.014;2024-03-08T08:28:17;100471.63;;;8.27;95.83
48424;BME280;34232;42.502;26.014;2024-03-08T08:30:46;100473.09;;;8.31;95.04
48424;BME280;34232;42.502;26.014;2024-03-08T08:33:14;100476.88;;;8.27;93.52
48424;BME280;34232;42.502;26.014;2024-03-08T08:35:40;100480.22;;;8.29;91.09
48424;BME280;34232;42.502;26.014;2024-03-08T08:38:05;100469.31;;;8.23;90.84
48424;BME280;34232;42.502;26.014;2024-03-08T08:40:33;100478.97;;;8.22;90.20
48424;BME280;34232;42.502;26.014;2024-03-08T08:42:59;100479.06;;;8.21;89.62
48424;BME280;34232;42.502;26.014;2024-03-08T08:45:25;100480.09;;;8.18;86.92
48424;BME280;34232;42.502;26.014;2024-03-08T08:47:51;100484.47;;;8.05;86.53
48424;BME280;34232;42.502;26.014;2024-03-08T08:50:17;100487.06;;;8.05;88.62
48424;BME280;34232;42.502;26.014;2024-03-08T08:52:48;100491.72;;;8.14;89.22
48424;BME280;34232;42.502;26.014;2024-03-08T08:55:14;100489.69;;;8.05;89.54
48424;BME280;34232;42.502;26.014;2024-03-08T08:57:43;100486.19;;;8.19;89.17
48424;BME280;34232;42.502;26.014;2024-03-08T09:00:09;100487.97;;;8.18;88.37
48424;BME280;34232;42.502;26.014;2024-03-08T09:02:40;100486.72;;;8.24;87.14
48424;BME280;34232;42.502;26.014;2024-03-08T09:05:06;100486.97;;;8.33;86.78
48424;BME280;34232;42.502;26.014;2024-03-08T09:07:33;100487.63;;;8.37;87.05
48424;BME280;34232;42.502;26.014;2024-03-08T09:09:59;100490.00;;;8.27;87.21
48424;BME280;34232;42.502;26.014;2024-03-08T09:12:25;100481.72;;;8.33;86.54
48424;BME280;34232;42.502;26.014;2024-03-08T09:14:50;100490.88;;;8.40;87.63
48424;BME280;34232;42.502;26.014;2024-03-08T09:17:16;100484.91;;;8.38;87.27
48424;BME280;34232;42.502;26.014;2024-03-08T09:19:49;100489.53;;;8.48;86.47
48424;BME280;34232;42.502;26.014;2024-03-08T09:22:14;100485.56;;;8.55;86.22
48424;BME280;34232;42.502;26.014;2024-03-08T09:24:40;100484.94;;;8.64;85.87
48424;BME280;34232;42.502;26.014;2024-03-08T09:27:06;100482.63;;;8.72;84.76
48424;BME280;34232;42.502;26.014;2024-03-08T09:29:31;100480.97;;;8.71;85.07
48424;BME280;34232;42.502;26.014;2024-03-08T09:31:57;100490.38;;;8.61;85.25
48424;BME280;34232;42.502;26.014;2024-03-08T09:34:22;100495.22;;;8.67;85.03
48424;BME280;34232;42.502;26.014;2024-03-08T09:36:49;100499.34;;;8.71;86.23
48424;BME280;34232;42.502;26.014;2024-03-08T09:39:16;100488.53;;;8.75;85.84
48424;BME280;34232;42.502;26.014;2024-03-08T09:41:45;100493.53;;;8.78;85.40
48424;BME280;34232;42.502;26.014;2024-03-08T09:44:15;100496.16;;;8.78;86.81
48424;BME280;34232;42.502;26.014;2024-03-08T09:46:40;100488.09;;;8.69;89.85
48424;BME280;34232;42.502;26.014;2024-03-08T09:49:06;100484.44;;;8.71;90.23
48424;BME280;34232;42.502;26.014;2024-03-08T09:51:34;100493.53;;;8.66;88.40
48424;BME280;34232;42.502;26.014;2024-03-08T09:54:01;100494.56;;;8.51;89.26
48424;BME280;34232;42.502;26.014;2024-03-08T09:56:32;100492.69;;;8.53;88.67
48424;BME280;34232;42.502;26.014;2024-03-08T09:58:59;100485.53;;;8.42;88.49
48424;BME280;34232;42.502;26.014;2024-03-08T10:01:37;100490.88;;;8.40;87.28
48424;BME280;34232;42.502;26.014;2024-03-08T10:04:04;100493.91;;;8.34;88.35
48424;BME280;34232;42.502;26.014;2024-03-08T10:06:30;100485.75;;;8.39;91.32
48424;BME280;34232;42.502;26.014;2024-03-08T10:08:56;100496.44;;;8.49;92.56
48424;BME280;34232;42.502;26.014;2024-03-08T10:11:22;100496.25;;;8.52;90.01
48424;BME280;34232;42.502;26.014;2024-03-08T10:13:48;100493.97;;;8.60;91.66
48424;BME280;34232;42.502;26.014;2024-03-08T10:16:15;100490.19;;;8.64;86.85
48424;BME280;34232;42.502;26.014;2024-03-08T10:18:42;100484.91;;;8.51;88.63
48424;BME280;34232;42.502;26.014;2024-03-08T10:21:09;100484.94;;;8.64;89.29
48424;BME280;34232;42.502;26.014;2024-03-08T10:23:39;100473.50;;;8.65;89.92
48424;BME280;34232;42.502;26.014;2024-03-08T10:26:17;100472.53;;;8.78;90.00
48424;BME280;34232;42.502;26.014;2024-03-08T10:28:45;100469.81;;;8.80;87.33
48424;BME280;34232;42.502;26.014;2024-03-08T10:31:13;100473.28;;;8.81;86.17
48424;BME280;34232;42.502;26.014;2024-03-08T10:33:40;100472.56;;;8.91;85.39
48424;BME280;34232;42.502;26.014;2024-03-08T10:36:09;100473.19;;;8.95;83.57
48424;BME280;34232;42.502;26.014;2024-03-08T10:38:39;100468.56;;;8.86;82.91
48424;BME280;34232;42.502;26.014;2024-03-08T10:41:11;100474.25;;;8.92;83.15
48424;BME280;34232;42.502;26.014;2024-03-08T10:46:21;100471.28;;;9.09;85.72
48424;BME280;34232;42.502;26.014;2024-03-08T10:48:55;100471.06;;;9.12;83.28
48424;BME280;34232;42.502;26.014;2024-03-08T10:51:25;100472.13;;;9.23;82.66
48424;BME280;34232;42.502;26.014;2024-03-08T10:53:52;100470.22;;;9.25;83.11
48424;BME280;34232;42.502;26.014;2024-03-08T10:56:17;100461.69;;;9.34;82.81
48424;BME280;34232;42.502;26.014;2024-03-08T10:58:43;100466.84;;;9.35;79.48
48424;BME280;34232;42.502;26.014;2024-03-08T11:01:09;100463.59;;;9.32;78.49
48424;BME280;34232;42.502;26.014;2024-03-08T11:03:47;100464.53;;;9.31;81.21
48424;BME280;34232;42.502;26.014;2024-03-08T11:06:17;100465.19;;;9.22;78.75
48424;BME280;34232;42.502;26.014;2024-03-08T11:08:46;100460.13;;;9.31;78.34
48424;BME280;34232;42.502;26.014;2024-03-08T11:11:29;100456.50;;;9.45;80.45
48424;BME280;34232;42.502;26.014;2024-03-08T11:13:58;100450.03;;;9.38;81.50
48424;BME280;34232;42.502;26.014;2024-03-08T11:21:44;100446.44;;;9.39;77.88
48424;BME280;34232;42.502;26.014;2024-03-08T11:24:12;100445.78;;;9.48;78.10
48424;BME280;34232;42.502;26.014;2024-03-08T11:26:39;100448.13;;;9.40;78.81
48424;BME280;34232;42.502;26.014;2024-03-08T11:32:12;100440.72;;;9.45;77.91
48424;BME280;34232;42.502;26.014;2024-03-08T11:34:49;100443.88;;;9.50;76.58
48424;BME280;34232;42.502;26.014;2024-03-08T11:37:19;100443.88;;;9.50;76.55
48424;BME280;34232;42.502;26.014;2024-03-08T11:39:53;100440.09;;;9.54;75.92
48424;BME280;34232;42.502;26.014;2024-03-08T11:42:24;100432.09;;;9.56;77.39
48424;BME280;34232;42.502;26.014;2024-03-08T11:44:51;100439.63;;;9.60;76.82
48424;BME280;34232;42.502;26.014;2024-03-08T11:47:17;100445.25;;;9.79;77.39
48424;BME280;34232;42.502;26.014;2024-03-08T11:49:43;100439.91;;;9.92;77.63
48424;BME280;34232;42.502;26.014;2024-03-08T11:52:13;100432.09;;;10.03;75.82
48424;BME280;34232;42.502;26.014;2024-03-08T11:54:40;100428.44;;;10.17;76.04
48424;BME280;34232;42.502;26.014;2024-03-08T11:57:06;100435.56;;;10.28;76.77
48424;BME280;34232;42.502;26.014;2024-03-08T11:59:32;100423.97;;;10.30;74.71
48424;BME280;34232;42.502;26.014;2024-03-08T12:02:03;100430.28;;;10.28;73.49
48424;BME280;34232;42.502;26.014;2024-03-08T12:04:30;100433.16;;;10.01;74.32
48424;BME280;34232;42.502;26.014;2024-03-08T12:06:57;100436.53;;;10.03;74.56
48424;BME280;34232;42.502;26.014;2024-03-08T12:09:25;100429.81;;;9.99;74.18
48424;BME280;34232;42.502;26.014;2024-03-08T12:11:50;100434.84;;;10.02;72.93
48424;BME280;34232;42.502;26.014;2024-03-08T12:14:17;100432.63;;;9.85;72.47
48424;BME280;34232;42.502;26.014;2024-03-08T12:16:42;100439.97;;;9.79;73.53
48424;BME280;34232;42.502;26.014;2024-03-08T12:19:09;100439.97;;;9.79;71.49
48424;BME280;34232;42.502;26.014;2024-03-08T12:21:35;100435.75;;;9.90;72.52
48424;BME280;34232;42.502;26.014;2024-03-08T12:24:08;100435.06;;;9.99;74.04
48424;BME280;34232;42.502;26.014;2024-03-08T12:26:35;100437.00;;;10.08;73.83
48424;BME280;34232;42.502;26.014;2024-03-08T12:31:42;100435.59;;;10.15;72.11
48424;BME280;34232;42.502;26.014;2024-03-08T12:34:08;100429.72;;;10.11;71.83
48424;BME280;34232;42.502;26.014;2024-03-08T12:36:35;100435.19;;;10.21;72.97
48424;BME280;34232;42.502;26.014;2024-03-08T12:39:01;100432.09;;;10.27;72.61
48424;BME280;34232;42.502;26.014;2024-03-08T12:41:29;100434.88;;;10.37;74.10
48424;BME280;34232;42.502;26.014;2024-03-08T12:43:54;100442.41;;;10.41;72.81
48424;BME280;34232;42.502;26.014;2024-03-08T12:46:21;100433.78;;;10.39;70.12
48424;BME280;34232;42.502;26.014;2024-03-08T12:48:47;100437.63;;;10.35;67.84
48424;BME280;34232;42.502;26.014;2024-03-08T12:51:14;100439.03;;;10.39;67.37
48424;BME280;34232;42.502;26.014;2024-03-08T12:53:41;100436.66;;;10.36;67.21
48424;BME280;34232;42.502;26.014;2024-03-08T12:56:09;100441.09;;;10.36;65.40
48424;BME280;34232;42.502;26.014;2024-03-08T12:58:36;100441.44;;;10.31;67.33
48424;BME280;34232;42.502;26.014;2024-03-08T13:01:02;100443.09;;;10.32;68.94